sensor_id;sensor_type;location;lat;lon;timestamp;P1;durP1;ratioP1;P2;durP2;ratioP2
74457;SDS011;62896;51.032;3.712;2023-02-26T00:02:22;10.9;;;2.7;;
74457;SDS011;62896;51.032;3.712;2023-02-26T00:05:42;10.9;;;2.7;;
74457;SDS011;62896;51.032;3.712;2023-02-26T00:09:03;15.1;;;2.8;;
74457;SDS011;62896;51.032;3.712;2023-02-26T00:12:22;15.1;;;2.8;;
74457;SDS011;62896;51.032;3.712;2023-02-26T00:15:42;15.1;;;2.8;;
74457;SDS011;62896;51.032;3.712;2023-02-26T00:19:03;15.1;;;2.8;;
74457;SDS011;62896;51.032;3.712;2023-02-26T00:22:22;15.1;;;2.8;;
74457;SDS011;62896;51.032;3.712;2023-02-26T00:25:42;15.1;;;2.8;;
74457;SDS011;62896;51.032;3.712;2023-02-26T00:29:02;15.1;;;2.8;;
74457;SDS011;62896;51.032;3.712;2023-02-26T00:32:22;10.1;;;2.8;;
74457;SDS011;62896;51.032;3.712;2023-02-26T00:35:42;10.1;;;2.8;;
74457;SDS011;62896;51.032;3.712;2023-02-26T00:39:05;10.1;;;2.8;;
74457;SDS011;62896;51.032;3.712;2023-02-26T00:42:22;10.1;;;2.8;;
74457;SDS011;62896;51.032;3.712;2023-02-26T00:45:43;10.1;;;2.8;;
74457;SDS011;62896;51.032;3.712;2023-02-26T00:49:04;10.1;;;2.8;;
74457;SDS011;62896;51.032;3.712;2023-02-26T00:52:25;10.1;;;2.8;;
74457;SDS011;62896;51.032;3.712;2023-02-26T00:55:42;10.1;;;2.8;;
74457;SDS011;62896;51.032;3.712;2023-02-26T00:59:02;11.9;;;2.7;;
74457;SDS011;62896;51.032;3.712;2023-02-26T01:02:22;11.9;;;2.7;;
74457;SDS011;62896;51.032;3.712;2023-02-26T01:05:42;11.9;;;2.7;;
74457;SDS011;62896;51.032;3.712;2023-02-26T01:09:04;11.9;;;2.7;;
74457;SDS011;62896;51.032;3.712;2023-02-26T01:12:22;11.9;;;2.7;;
74457;SDS011;62896;51.032;3.712;2023-02-26T01:15:44;11.9;;;2.7;;
74457;SDS011;62896;51.032;3.712;2023-02-26T01:19:04;11.9;;;2.7;;
74457;SDS011;62896;51.032;3.712;2023-02-26T01:22:24;12.1;;;2.6;;
74457;SDS011;62896;51.032;3.712;2023-02-26T01:25:43;12.1;;;2.6;;
74457;SDS011;62896;51.032;3.712;2023-02-26T01:29:02;12.1;;;2.6;;
74457;SDS011;62896;51.032;3.712;2023-02-26T01:32:23;12.1;;;2.6;;
74457;SDS011;62896;51.032;3.712;2023-02-26T01:35:44;12.1;;;2.6;;
74457;SDS011;62896;51.032;3.712;2023-02-26T01:39:03;12.1;;;2.6;;
74457;SDS011;62896;51.032;3.712;2023-02-26T01:42:22;12.1;;;2.6;;
74457;SDS011;62896;51.032;3.712;2023-02-26T01:45:45;12.1;;;2.6;;
74457;SDS011;62896;51.032;3.712;2023-02-26T01:49:03;7.9;;;2.1;;
74457;SDS011;62896;51.032;3.712;2023-02-26T01:53:06;7.9;;;2.1;;
74457;SDS011;62896;51.032;3.712;2023-02-26T01:55:43;7.9;;;2.1;;
74457;SDS011;62896;51.032;3.712;2023-02-26T01:59:02;7.9;;;2.1;;
74457;SDS011;62896;51.032;3.712;2023-02-26T02:02:22;7.9;;;2.1;;
74457;SDS011;62896;51.032;3.712;2023-02-26T02:05:43;7.9;;;2.1;;
74457;SDS011;62896;51.032;3.712;2023-02-26T02:09:03;7.9;;;2.1;;
74457;SDS011;62896;51.032;3.712;2023-02-26T02:12:24;11.1;;;2.4;;
74457;SDS011;62896;51.032;3.712;2023-02-26T02:15:44;11.1;;;2.4;;
74457;SDS011;62896;51.032;3.712;2023-02-26T02:19:06;11.1;;;2.4;;
74457;SDS011;62896;51.032;3.712;2023-02-26T02:22:27;11.1;;;2.4;;
74457;SDS011;62896;51.032;3.712;2023-02-26T02:25:55;11.1;;;2.4;;
74457;SDS011;62896;51.032;3.712;2023-02-26T02:29:08;11.1;;;2.4;;
74457;SDS011;62896;51.032;3.712;2023-02-26T02:32:24;11.1;;;2.4;;
74457;SDS011;62896;51.032;3.712;2023-02-26T02:35:43;11.1;;;2.4;;
74457;SDS011;62896;51.032;3.712;2023-02-26T02:39:04;9.4;;;2.1;;
74457;SDS011;62896;51.032;3.712;2023-02-26T02:42:25;9.4;;;2.1;;
74457;SDS011;62896;51.032;3.712;2023-02-26T02:45:44;9.4;;;2.1;;
74457;SDS011;62896;51.032;3.712;2023-02-26T02:49:03;9.4;;;2.1;;
74457;SDS011;62896;51.032;3.712;2023-02-26T02:52:32;9.4;;;2.1;;
74457;SDS011;62896;51.032;3.712;2023-02-26T02:55:46;9.4;;;2.1;;
74457;SDS011;62896;51.032;3.712;2023-02-26T02:59:04;9.4;;;2.1;;
74457;SDS011;62896;51.032;3.712;2023-02-26T03:02:23;6.9;;;1.3;;
74457;SDS011;62896;51.032;3.712;2023-02-26T03:05:42;6.9;;;1.3;;
74457;SDS011;62896;51.032;3.712;2023-02-26T03:09:03;6.9;;;1.3;;
74457;SDS011;62896;51.032;3.712;2023-02-26T03:12:24;6.9;;;1.3;;
74457;SDS011;62896;51.032;3.712;2023-02-26T03:15:45;6.9;;;1.3;;
74457;SDS011;62896;51.032;3.712;2023-02-26T03:19:04;6.9;;;1.3;;
74457;SDS011;62896;51.032;3.712;2023-02-26T03:22:24;6.9;;;1.3;;
74457;SDS011;62896;51.032;3.712;2023-02-26T03:25:43;6.9;;;1.3;;
74457;SDS011;62896;51.032;3.712;2023-02-26T03:29:04;6.3;;;1;;
74457;SDS011;62896;51.032;3.712;2023-02-26T03:32:24;6.3;;;1;;
74457;SDS011;62896;51.032;3.712;2023-02-26T03:35:44;6.3;;;1;;
74457;SDS011;62896;51.032;3.712;2023-02-26T03:39:03;6.3;;;1;;
74457;SDS011;62896;51.032;3.712;2023-02-26T03:42:23;6.3;;;1;;
74457;SDS011;62896;51.032;3.712;2023-02-26T03:45:43;6.3;;;1;;
74457;SDS011;62896;51.032;3.712;2023-02-26T03:49:03;6.3;;;1;;
74457;SDS011;62896;51.032;3.712;2023-02-26T03:52:23;5.9;;;0.9;;
74457;SDS011;62896;51.032;3.712;2023-02-26T03:55:43;5.9;;;0.9;;
74457;SDS011;62896;51.032;3.712;2023-02-26T03:59:02;5.9;;;0.9;;
74457;SDS011;62896;51.032;3.712;2023-02-26T04:02:24;5.9;;;0.9;;
74457;SDS011;62896;51.032;3.712;2023-02-26T04:05:43;5.9;;;0.9;;
74457;SDS011;62896;51.032;3.712;2023-02-26T04:09:02;5.9;;;0.9;;
74457;SDS011;62896;51.032;3.712;2023-02-26T04:12:23;5.9;;;0.9;;
74457;SDS011;62896;51.032;3.712;2023-02-26T04:15:42;5.9;;;0.9;;
74457;SDS011;62896;51.032;3.712;2023-02-26T04:19:02;6.4;;;1;;
74457;SDS011;62896;51.032;3.712;2023-02-26T04:22:22;6.4;;;1;;
74457;SDS011;62896;51.032;3.712;2023-02-26T04:25:42;6.4;;;1;;
74457;SDS011;62896;51.032;3.712;2023-02-26T04:29:02;6.4;;;1;;
74457;SDS011;62896;51.032;3.712;2023-02-26T04:32:22;6.4;;;1;;
74457;SDS011;62896;51.032;3.712;2023-02-26T04:35:43;6.4;;;1;;
74457;SDS011;62896;51.032;3.712;2023-02-26T04:39:02;6.4;;;1;;
74457;SDS011;62896;51.032;3.712;2023-02-26T04:42:22;8.3;;;1;;
74457;SDS011;62896;51.032;3.712;2023-02-26T04:45:43;8.3;;;1;;
74457;SDS011;62896;51.032;3.712;2023-02-26T04:49:02;8.3;;;1;;
74457;SDS011;62896;51.032;3.712;2023-02-26T04:52:22;8.3;;;1;;
74457;SDS011;62896;51.032;3.712;2023-02-26T04:55:42;8.3;;;1;;
74457;SDS011;62896;51.032;3.712;2023-02-26T04:59:02;8.3;;;1;;
74457;SDS011;62896;51.032;3.712;2023-02-26T05:02:22;8.3;;;1;;
74457;SDS011;62896;51.032;3.712;2023-02-26T05:05:42;8.3;;;1;;
74457;SDS011;62896;51.032;3.712;2023-02-26T05:09:04;5.5;;;0.8;;
74457;SDS011;62896;51.032;3.712;2023-02-26T05:12:22;5.5;;;0.8;;
74457;SDS011;62896;51.032;3.712;2023-02-26T05:15:42;5.5;;;0.8;;
74457;SDS011;62896;51.032;3.712;2023-02-26T05:19:02;5.5;;;0.8;;
74457;SDS011;62896;51.032;3.712;2023-02-26T05:22:22;5.5;;;0.8;;
74457;SDS011;62896;51.032;3.712;2023-02-26T05:25:42;5.5;;;0.8;;
74457;SDS011;62896;51.032;3.712;2023-02-26T05:29:02;5.5;;;0.8;;
74457;SDS011;62896;51.032;3.712;2023-02-26T05:32:22;8.1;;;0.9;;
74457;SDS011;62896;51.032;3.712;2023-02-26T05:35:42;8.1;;;0.9;;
74457;SDS011;62896;51.032;3.712;2023-02-26T05:39:02;8.1;;;0.9;;
74457;SDS011;62896;51.032;3.712;2023-02-26T05:42:22;8.1;;;0.9;;
74457;SDS011;62896;51.032;3.712;2023-02-26T05:45:42;8.1;;;0.9;;
74457;SDS011;62896;51.032;3.712;2023-02-26T05:49:02;8.1;;;0.9;;
74457;SDS011;62896;51.032;3.712;2023-02-26T05:52:22;8.1;;;0.9;;
74457;SDS011;62896;51.032;3.712;2023-02-26T05:55:42;8.1;;;0.9;;
74457;SDS011;62896;51.032;3.712;2023-02-26T05:59:02;8.1;;;0.8;;
74457;SDS011;62896;51.032;3.712;2023-02-26T06:02:22;8.1;;;0.8;;
74457;SDS011;62896;51.032;3.712;2023-02-26T06:05:42;8.1;;;0.8;;
74457;SDS011;62896;51.032;3.712;2023-02-26T06:09:02;8.1;;;0.8;;
74457;SDS011;62896;51.032;3.712;2023-02-26T06:12:22;8.1;;;0.8;;
74457;SDS011;62896;51.032;3.712;2023-02-26T06:15:42;8.1;;;0.8;;
74457;SDS011;62896;51.032;3.712;2023-02-26T06:19:02;8.1;;;0.8;;
74457;SDS011;62896;51.032;3.712;2023-02-26T06:22:22;4.2;;;0.7;;
74457;SDS011;62896;51.032;3.712;2023-02-26T06:25:42;4.2;;;0.7;;
74457;SDS011;62896;51.032;3.712;2023-02-26T06:29:02;4.2;;;0.7;;
74457;SDS011;62896;51.032;3.712;2023-02-26T06:32:22;4.2;;;0.7;;
74457;SDS011;62896;51.032;3.712;2023-02-26T06:35:42;4.2;;;0.7;;
74457;SDS011;62896;51.032;3.712;2023-02-26T06:39:02;4.2;;;0.7;;
74457;SDS011;62896;51.032;3.712;2023-02-26T06:42:22;4.2;;;0.7;;
74457;SDS011;62896;51.032;3.712;2023-02-26T06:45:42;4.2;;;0.7;;
74457;SDS011;62896;51.032;3.712;2023-02-26T06:49:02;5.5;;;0.8;;
74457;SDS011;62896;51.032;3.712;2023-02-26T06:52:22;5.5;;;0.8;;
74457;SDS011;62896;51.032;3.712;2023-02-26T06:55:42;5.5;;;0.8;;
74457;SDS011;62896;51.032;3.712;2023-02-26T06:59:02;5.5;;;0.8;;
74457;SDS011;62896;51.032;3.712;2023-02-26T07:02:23;5.5;;;0.8;;
74457;SDS011;62896;51.032;3.712;2023-02-26T07:05:43;5.5;;;0.8;;
74457;SDS011;62896;51.032;3.712;2023-02-26T07:09:02;5.5;;;0.8;;
74457;SDS011;62896;51.032;3.712;2023-02-26T07:12:22;7.9;;;1.2;;
74457;SDS011;62896;51.032;3.712;2023-02-26T07:15:43;7.9;;;1.2;;
74457;SDS011;62896;51.032;3.712;2023-02-26T07:19:02;7.9;;;1.2;;
74457;SDS011;62896;51.032;3.712;2023-02-26T07:22:22;7.9;;;1.2;;
74457;SDS011;62896;51.032;3.712;2023-02-26T07:25:42;7.9;;;1.2;;
74457;SDS011;62896;51.032;3.712;2023-02-26T07:29:02;7.9;;;1.2;;
74457;SDS011;62896;51.032;3.712;2023-02-26T07:32:22;7.9;;;1.2;;
74457;SDS011;62896;51.032;3.712;2023-02-26T07:35:42;7.9;;;1.2;;
74457;SDS011;62896;51.032;3.712;2023-02-26T07:39:02;6.1;;;1;;
74457;SDS011;62896;51.032;3.712;2023-02-26T07:42:22;6.1;;;1;;
74457;SDS011;62896;51.032;3.712;2023-02-26T07:45:42;6.1;;;1;;
74457;SDS011;62896;51.032;3.712;2023-02-26T07:49:03;6.1;;;1;;
74457;SDS011;62896;51.032;3.712;2023-02-26T07:52:22;6.1;;;1;;
74457;SDS011;62896;51.032;3.712;2023-02-26T07:55:42;6.1;;;1;;
74457;SDS011;62896;51.032;3.712;2023-02-26T07:59:02;6.1;;;1;;
74457;SDS011;62896;51.032;3.712;2023-02-26T08:02:22;7.5;;;0.8;;
74457;SDS011;62896;51.032;3.712;2023-02-26T08:05:42;7.5;;;0.8;;
74457;SDS011;62896;51.032;3.712;2023-02-26T08:09:03;7.5;;;0.8;;
74457;SDS011;62896;51.032;3.712;2023-02-26T08:12:22;7.5;;;0.8;;
74457;SDS011;62896;51.032;3.712;2023-02-26T08:15:42;7.5;;;0.8;;
74457;SDS011;62896;51.032;3.712;2023-02-26T08:19:02;7.5;;;0.8;;
74457;SDS011;62896;51.032;3.712;2023-02-26T08:22:23;7.5;;;0.8;;
74457;SDS011;62896;51.032;3.712;2023-02-26T08:25:42;7.5;;;0.8;;
74457;SDS011;62896;51.032;3.712;2023-02-26T08:29:03;7.1;;;1.1;;
74457;SDS011;62896;51.032;3.712;2023-02-26T08:32:22;7.1;;;1.1;;
74457;SDS011;62896;51.032;3.712;2023-02-26T08:35:42;7.1;;;1.1;;
74457;SDS011;62896;51.032;3.712;2023-02-26T08:39:03;7.1;;;1.1;;
74457;SDS011;62896;51.032;3.712;2023-02-26T08:42:22;7.1;;;1.1;;
74457;SDS011;62896;51.032;3.712;2023-02-26T08:45:43;7.1;;;1.1;;
74457;SDS011;62896;51.032;3.712;2023-02-26T08:49:02;7.1;;;1.1;;
74457;SDS011;62896;51.032;3.712;2023-02-26T08:52:23;3.2;;;1;;
74457;SDS011;62896;51.032;3.712;2023-02-26T08:55:46;3.2;;;1;;
74457;SDS011;62896;51.032;3.712;2023-02-26T08:59:03;3.2;;;1;;
74457;SDS011;62896;51.032;3.712;2023-02-26T09:02:22;3.2;;;1;;
74457;SDS011;62896;51.032;3.712;2023-02-26T09:05:42;3.2;;;1;;
74457;SDS011;62896;51.032;3.712;2023-02-26T09:09:03;3.2;;;1;;
74457;SDS011;62896;51.032;3.712;2023-02-26T09:12:23;3.2;;;1;;
74457;SDS011;62896;51.032;3.712;2023-02-26T09:15:43;3.2;;;1;;
74457;SDS011;62896;51.032;3.712;2023-02-26T09:19:03;4.8;;;1.5;;
74457;SDS011;62896;51.032;3.712;2023-02-26T09:22:23;4.8;;;1.5;;
74457;SDS011;62896;51.032;3.712;2023-02-26T09:25:43;4.8;;;1.5;;
74457;SDS011;62896;51.032;3.712;2023-02-26T09:29:03;4.8;;;1.5;;
74457;SDS011;62896;51.032;3.712;2023-02-26T09:32:23;4.8;;;1.5;;
74457;SDS011;62896;51.032;3.712;2023-02-26T09:35:43;4.8;;;1.5;;
74457;SDS011;62896;51.032;3.712;2023-02-26T09:39:03;4.8;;;1.5;;
74457;SDS011;62896;51.032;3.712;2023-02-26T09:42:26;7.6;;;1;;
74457;SDS011;62896;51.032;3.712;2023-02-26T09:45:43;7.6;;;1;;
74457;SDS011;62896;51.032;3.712;2023-02-26T09:49:04;7.6;;;1;;
74457;SDS011;62896;51.032;3.712;2023-02-26T09:52:25;7.6;;;1;;
74457;SDS011;62896;51.032;3.712;2023-02-26T09:55:44;7.6;;;1;;
74457;SDS011;62896;51.032;3.712;2023-02-26T09:59:03;7.6;;;1;;
74457;SDS011;62896;51.032;3.712;2023-02-26T10:02:23;7.6;;;1;;
74457;SDS011;62896;51.032;3.712;2023-02-26T10:05:45;7.6;;;1;;
74457;SDS011;62896;51.032;3.712;2023-02-26T10:09:07;4.3;;;0.8;;
74457;SDS011;62896;51.032;3.712;2023-02-26T10:12:23;4.3;;;0.8;;
74457;SDS011;62896;51.032;3.712;2023-02-26T10:15:43;4.3;;;0.8;;
74457;SDS011;62896;51.032;3.712;2023-02-26T10:19:03;4.3;;;0.8;;
74457;SDS011;62896;51.032;3.712;2023-02-26T10:22:23;4.3;;;0.8;;
74457;SDS011;62896;51.032;3.712;2023-02-26T10:25:43;4.3;;;0.8;;
74457;SDS011;62896;51.032;3.712;2023-02-26T10:29:05;4.3;;;0.8;;
74457;SDS011;62896;51.032;3.712;2023-02-26T10:32:23;3.8;;;0.6;;
74457;SDS011;62896;51.032;3.712;2023-02-26T10:35:44;3.8;;;0.6;;
74457;SDS011;62896;51.032;3.712;2023-02-26T10:39:03;3.8;;;0.6;;
74457;SDS011;62896;51.032;3.712;2023-02-26T10:42:24;3.8;;;0.6;;
74457;SDS011;62896;51.032;3.712;2023-02-26T10:45:46;3.8;;;0.6;;
74457;SDS011;62896;51.032;3.712;2023-02-26T10:49:17;3.8;;;0.6;;
74457;SDS011;62896;51.032;3.712;2023-02-26T10:52:23;3.8;;;0.6;;
74457;SDS011;62896;51.032;3.712;2023-02-26T10:55:43;3.8;;;0.6;;
74457;SDS011;62896;51.032;3.712;2023-02-26T10:59:03;2.7;;;0.5;;
74457;SDS011;62896;51.032;3.712;2023-02-26T11:02:30;2.7;;;0.5;;
74457;SDS011;62896;51.032;3.712;2023-02-26T11:05:43;2.7;;;0.5;;
74457;SDS011;62896;51.032;3.712;2023-02-26T11:09:03;2.7;;;0.5;;
74457;SDS011;62896;51.032;3.712;2023-02-26T11:12:23;2.7;;;0.5;;
74457;SDS011;62896;51.032;3.712;2023-02-26T11:15:43;2.7;;;0.5;;
74457;SDS011;62896;51.032;3.712;2023-02-26T11:19:03;2.7;;;0.5;;
74457;SDS011;62896;51.032;3.712;2023-02-26T11:22:24;4.9;;;0.9;;
74457;SDS011;62896;51.032;3.712;2023-02-26T11:25:43;4.9;;;0.9;;
74457;SDS011;62896;51.032;3.712;2023-02-26T11:29:03;4.9;;;0.9;;
74457;SDS011;62896;51.032;3.712;2023-02-26T11:32:36;4.9;;;0.9;;
74457;SDS011;62896;51.032;3.712;2023-02-26T11:35:43;4.9;;;0.9;;
74457;SDS011;62896;51.032;3.712;2023-02-26T11:39:04;4.9;;;0.9;;
74457;SDS011;62896;51.032;3.712;2023-02-26T11:42:23;4.9;;;0.9;;
74457;SDS011;62896;51.032;3.712;2023-02-26T11:45:43;4.9;;;0.9;;
74457;SDS011;62896;51.032;3.712;2023-02-26T11:49:03;3.2;;;0.8;;
74457;SDS011;62896;51.032;3.712;2023-02-26T11:52:26;3.2;;;0.8;;
74457;SDS011;62896;51.032;3.712;2023-02-26T11:55:43;3.2;;;0.8;;
74457;SDS011;62896;51.032;3.712;2023-02-26T11:59:05;3.2;;;0.8;;
74457;SDS011;62896;51.032;3.712;2023-02-26T12:02:23;3.2;;;0.8;;
74457;SDS011;62896;51.032;3.712;2023-02-26T12:05:43;3.2;;;0.8;;
74457;SDS011;62896;51.032;3.712;2023-02-26T12:09:03;3.2;;;0.8;;
74457;SDS011;62896;51.032;3.712;2023-02-26T12:12:28;5.5;;;1.1;;
74457;SDS011;62896;51.032;3.712;2023-02-26T12:15:45;5.5;;;1.1;;
74457;SDS011;62896;51.032;3.712;2023-02-26T12:19:04;5.5;;;1.1;;
74457;SDS011;62896;51.032;3.712;2023-02-26T12:22:28;5.5;;;1.1;;
74457;SDS011;62896;51.032;3.712;2023-02-26T12:25:47;5.5;;;1.1;;
74457;SDS011;62896;51.032;3.712;2023-02-26T12:29:06;5.5;;;1.1;;
74457;SDS011;62896;51.032;3.712;2023-02-26T12:32:27;5.5;;;1.1;;
74457;SDS011;62896;51.032;3.712;2023-02-26T12:35:49;5.5;;;1.1;;
74457;SDS011;62896;51.032;3.712;2023-02-26T12:39:05;1.9;;;0.7;;
74457;SDS011;62896;51.032;3.712;2023-02-26T12:42:26;1.9;;;0.7;;
74457;SDS011;62896;51.032;3.712;2023-02-26T12:45:45;1.9;;;0.7;;
74457;SDS011;62896;51.032;3.712;2023-02-26T12:49:07;1.9;;;0.7;;
74457;SDS011;62896;51.032;3.712;2023-02-26T12:52:29;1.9;;;0.7;;
74457;SDS011;62896;51.032;3.712;2023-02-26T12:55:46;1.9;;;0.7;;
74457;SDS011;62896;51.032;3.712;2023-02-26T12:59:06;1.9;;;0.7;;
74457;SDS011;62896;51.032;3.712;2023-02-26T13:02:33;1.9;;;0.6;;
74457;SDS011;62896;51.032;3.712;2023-02-26T13:05:47;1.9;;;0.6;;
74457;SDS011;62896;51.032;3.712;2023-02-26T13:09:04;1.9;;;0.6;;
74457;SDS011;62896;51.032;3.712;2023-02-26T13:12:33;1.9;;;0.6;;
74457;SDS011;62896;51.032;3.712;2023-02-26T13:16:01;1.9;;;0.6;;
74457;SDS011;62896;51.032;3.712;2023-02-26T13:19:04;1.9;;;0.6;;
74457;SDS011;62896;51.032;3.712;2023-02-26T13:22:24;1.9;;;0.6;;
74457;SDS011;62896;51.032;3.712;2023-02-26T13:25:43;1.9;;;0.6;;
74457;SDS011;62896;51.032;3.712;2023-02-26T13:29:04;2;;;0.7;;
74457;SDS011;62896;51.032;3.712;2023-02-26T13:32:23;2;;;0.7;;
74457;SDS011;62896;51.032;3.712;2023-02-26T13:35:43;2;;;0.7;;
74457;SDS011;62896;51.032;3.712;2023-02-26T13:39:07;2;;;0.7;;
74457;SDS011;62896;51.032;3.712;2023-02-26T13:42:26;2;;;0.7;;
74457;SDS011;62896;51.032;3.712;2023-02-26T13:45:45;2;;;0.7;;
74457;SDS011;62896;51.032;3.712;2023-02-26T13:49:05;2;;;0.7;;
74457;SDS011;62896;51.032;3.712;2023-02-26T13:52:23;2.5;;;0.8;;
74457;SDS011;62896;51.032;3.712;2023-02-26T13:55:44;2.5;;;0.8;;
74457;SDS011;62896;51.032;3.712;2023-02-26T13:59:03;2.5;;;0.8;;
74457;SDS011;62896;51.032;3.712;2023-02-26T14:02:34;2.5;;;0.8;;
74457;SDS011;62896;51.032;3.712;2023-02-26T14:05:52;2.5;;;0.8;;
74457;SDS011;62896;51.032;3.712;2023-02-26T14:09:03;2.5;;;0.8;;
74457;SDS011;62896;51.032;3.712;2023-02-26T14:12:25;2.5;;;0.8;;
74457;SDS011;62896;51.032;3.712;2023-02-26T14:15:48;2.5;;;0.8;;
74457;SDS011;62896;51.032;3.712;2023-02-26T14:19:03;2;;;0.7;;
74457;SDS011;62896;51.032;3.712;2023-02-26T14:22:32;2;;;0.7;;
74457;SDS011;62896;51.032;3.712;2023-02-26T14:25:45;2;;;0.7;;
74457;SDS011;62896;51.032;3.712;2023-02-26T14:29:07;2;;;0.7;;
74457;SDS011;62896;51.032;3.712;2023-02-26T14:32:25;2;;;0.7;;
74457;SDS011;62896;51.032;3.712;2023-02-26T14:35:43;2;;;0.7;;
74457;SDS011;62896;51.032;3.712;2023-02-26T14:39:04;2;;;0.7;;
74457;SDS011;62896;51.032;3.712;2023-02-26T14:42:25;1.5;;;0.7;;
74457;SDS011;62896;51.032;3.712;2023-02-26T14:45:43;1.5;;;0.7;;
74457;SDS011;62896;51.032;3.712;2023-02-26T14:49:03;1.5;;;0.7;;
74457;SDS011;62896;51.032;3.712;2023-02-26T14:52:34;1.5;;;0.7;;
74457;SDS011;62896;51.032;3.712;2023-02-26T14:55:44;1.5;;;0.7;;
74457;SDS011;62896;51.032;3.712;2023-02-26T14:59:07;1.5;;;0.7;;
74457;SDS011;62896;51.032;3.712;2023-02-26T15:02:25;1.5;;;0.7;;
74457;SDS011;62896;51.032;3.712;2023-02-26T15:05:44;1.5;;;0.7;;
74457;SDS011;62896;51.032;3.712;2023-02-26T15:09:06;2.7;;;0.8;;
74457;SDS011;62896;51.032;3.712;2023-02-26T15:12:27;2.7;;;0.8;;
74457;SDS011;62896;51.032;3.712;2023-02-26T15:15:45;2.7;;;0.8;;
74457;SDS011;62896;51.032;3.712;2023-02-26T15:19:07;2.7;;;0.8;;
74457;SDS011;62896;51.032;3.712;2023-02-26T15:22:27;2.7;;;0.8;;
74457;SDS011;62896;51.032;3.712;2023-02-26T15:25:43;2.7;;;0.8;;
74457;SDS011;62896;51.032;3.712;2023-02-26T15:29:03;2.7;;;0.8;;
74457;SDS011;62896;51.032;3.712;2023-02-26T15:32:24;2.5;;;0.7;;
74457;SDS011;62896;51.032;3.712;2023-02-26T15:35:43;2.5;;;0.7;;
74457;SDS011;62896;51.032;3.712;2023-02-26T15:39:04;2.5;;;0.7;;
74457;SDS011;62896;51.032;3.712;2023-02-26T15:42:25;2.5;;;0.7;;
74457;SDS011;62896;51.032;3.712;2023-02-26T15:45:43;2.5;;;0.7;;
74457;SDS011;62896;51.032;3.712;2023-02-26T15:49:04;2.5;;;0.7;;
74457;SDS011;62896;51.032;3.712;2023-02-26T15:52:24;2.5;;;0.7;;
74457;SDS011;62896;51.032;3.712;2023-02-26T15:55:44;2.5;;;0.7;;
74457;SDS011;62896;51.032;3.712;2023-02-26T15:59:04;3.8;;;0.9;;
74457;SDS011;62896;51.032;3.712;2023-02-26T16:02:25;3.8;;;0.9;;
74457;SDS011;62896;51.032;3.712;2023-02-26T16:05:43;3.8;;;0.9;;
74457;SDS011;62896;51.032;3.712;2023-02-26T16:09:04;3.8;;;0.9;;
74457;SDS011;62896;51.032;3.712;2023-02-26T16:12:28;3.8;;;0.9;;
74457;SDS011;62896;51.032;3.712;2023-02-26T16:15:43;3.8;;;0.9;;
74457;SDS011;62896;51.032;3.712;2023-02-26T16:19:03;3.8;;;0.9;;
74457;SDS011;62896;51.032;3.712;2023-02-26T16:22:23;2.4;;;0.8;;
74457;SDS011;62896;51.032;3.712;2023-02-26T16:25:49;2.4;;;0.8;;
74457;SDS011;62896;51.032;3.712;2023-02-26T16:29:04;2.4;;;0.8;;
74457;SDS011;62896;51.032;3.712;2023-02-26T16:32:23;2.4;;;0.8;;
74457;SDS011;62896;51.032;3.712;2023-02-26T16:35:44;2.4;;;0.8;;
74457;SDS011;62896;51.032;3.712;2023-02-26T16:39:12;2.4;;;0.8;;
74457;SDS011;62896;51.032;3.712;2023-02-26T16:42:31;2.4;;;0.8;;
74457;SDS011;62896;51.032;3.712;2023-02-26T16:45:45;2.4;;;0.8;;
74457;SDS011;62896;51.032;3.712;2023-02-26T16:49:03;2;;;0.7;;
74457;SDS011;62896;51.032;3.712;2023-02-26T16:52:23;2;;;0.7;;
74457;SDS011;62896;51.032;3.712;2023-02-26T16:55:45;2;;;0.7;;
74457;SDS011;62896;51.032;3.712;2023-02-26T16:59:04;2;;;0.7;;
74457;SDS011;62896;51.032;3.712;2023-02-26T17:02:23;2;;;0.7;;
74457;SDS011;62896;51.032;3.712;2023-02-26T17:05:47;2;;;0.7;;
74457;SDS011;62896;51.032;3.712;2023-02-26T17:09:04;2;;;0.7;;
74457;SDS011;62896;51.032;3.712;2023-02-26T17:12:27;3.6;;;0.9;;
74457;SDS011;62896;51.032;3.712;2023-02-26T17:15:44;3.6;;;0.9;;
74457;SDS011;62896;51.032;3.712;2023-02-26T17:19:03;3.6;;;0.9;;
74457;SDS011;62896;51.032;3.712;2023-02-26T17:22:24;3.6;;;0.9;;
74457;SDS011;62896;51.032;3.712;2023-02-26T17:25:44;3.6;;;0.9;;
74457;SDS011;62896;51.032;3.712;2023-02-26T17:29:03;3.6;;;0.9;;
74457;SDS011;62896;51.032;3.712;2023-02-26T17:32:24;3.6;;;0.9;;
74457;SDS011;62896;51.032;3.712;2023-02-26T17:35:43;3.6;;;0.9;;
74457;SDS011;62896;51.032;3.712;2023-02-26T17:39:03;6.4;;;1.1;;
74457;SDS011;62896;51.032;3.712;2023-02-26T17:42:23;6.4;;;1.1;;
74457;SDS011;62896;51.032;3.712;2023-02-26T17:45:43;6.4;;;1.1;;
74457;SDS011;62896;51.032;3.712;2023-02-26T17:49:03;6.4;;;1.1;;
74457;SDS011;62896;51.032;3.712;2023-02-26T17:52:23;6.4;;;1.1;;
74457;SDS011;62896;51.032;3.712;2023-02-26T17:55:43;6.4;;;1.1;;
74457;SDS011;62896;51.032;3.712;2023-02-26T17:59:03;6.4;;;1.1;;
74457;SDS011;62896;51.032;3.712;2023-02-26T18:02:23;5.3;;;1.3;;
74457;SDS011;62896;51.032;3.712;2023-02-26T18:05:43;5.3;;;1.3;;
74457;SDS011;62896;51.032;3.712;2023-02-26T18:09:03;5.3;;;1.3;;
74457;SDS011;62896;51.032;3.712;2023-02-26T18:12:23;5.3;;;1.3;;
74457;SDS011;62896;51.032;3.712;2023-02-26T18:15:43;5.3;;;1.3;;
74457;SDS011;62896;51.032;3.712;2023-02-26T18:19:03;5.3;;;1.3;;
74457;SDS011;62896;51.032;3.712;2023-02-26T18:22:23;5.3;;;1.3;;
74457;SDS011;62896;51.032;3.712;2023-02-26T18:25:44;5.3;;;1.3;;
74457;SDS011;62896;51.032;3.712;2023-02-26T18:29:03;6;;;1.1;;
74457;SDS011;62896;51.032;3.712;2023-02-26T18:32:23;6;;;1.1;;
74457;SDS011;62896;51.032;3.712;2023-02-26T18:35:43;6;;;1.1;;
74457;SDS011;62896;51.032;3.712;2023-02-26T18:39:05;6;;;1.1;;
74457;SDS011;62896;51.032;3.712;2023-02-26T18:42:24;6;;;1.1;;
74457;SDS011;62896;51.032;3.712;2023-02-26T18:45:43;6;;;1.1;;
74457;SDS011;62896;51.032;3.712;2023-02-26T18:49:03;6;;;1.1;;
74457;SDS011;62896;51.032;3.712;2023-02-26T18:52:23;4;;;0.8;;
74457;SDS011;62896;51.032;3.712;2023-02-26T18:55:43;4;;;0.8;;
74457;SDS011;62896;51.032;3.712;2023-02-26T18:59:03;4;;;0.8;;
74457;SDS011;62896;51.032;3.712;2023-02-26T19:02:23;4;;;0.8;;
74457;SDS011;62896;51.032;3.712;2023-02-26T19:05:43;4;;;0.8;;
74457;SDS011;62896;51.032;3.712;2023-02-26T19:09:03;4;;;0.8;;
74457;SDS011;62896;51.032;3.712;2023-02-26T19:12:23;4;;;0.8;;
74457;SDS011;62896;51.032;3.712;2023-02-26T19:15:43;4;;;0.8;;
74457;SDS011;62896;51.032;3.712;2023-02-26T19:19:03;3.9;;;0.9;;
74457;SDS011;62896;51.032;3.712;2023-02-26T19:22:23;3.9;;;0.9;;
74457;SDS011;62896;51.032;3.712;2023-02-26T19:25:43;3.9;;;0.9;;
74457;SDS011;62896;51.032;3.712;2023-02-26T19:29:03;3.9;;;0.9;;
74457;SDS011;62896;51.032;3.712;2023-02-26T19:32:23;3.9;;;0.9;;
74457;SDS011;62896;51.032;3.712;2023-02-26T19:35:43;3.9;;;0.9;;
74457;SDS011;62896;51.032;3.712;2023-02-26T19:39:03;3.9;;;0.9;;
74457;SDS011;62896;51.032;3.712;2023-02-26T19:42:23;3.1;;;0.9;;
74457;SDS011;62896;51.032;3.712;2023-02-26T19:45:43;3.1;;;0.9;;
74457;SDS011;62896;51.032;3.712;2023-02-26T19:49:03;3.1;;;0.9;;
74457;SDS011;62896;51.032;3.712;2023-02-26T19:52:23;3.1;;;0.9;;
74457;SDS011;62896;51.032;3.712;2023-02-26T19:55:43;3.1;;;0.9;;
74457;SDS011;62896;51.032;3.712;2023-02-26T19:59:03;3.1;;;0.9;;
74457;SDS011;62896;51.032;3.712;2023-02-26T20:02:23;3.1;;;0.9;;
74457;SDS011;62896;51.032;3.712;2023-02-26T20:05:43;3.1;;;0.9;;
74457;SDS011;62896;51.032;3.712;2023-02-26T20:09:03;3.1;;;0.9;;
74457;SDS011;62896;51.032;3.712;2023-02-26T20:12:23;3.1;;;0.9;;
74457;SDS011;62896;51.032;3.712;2023-02-26T20:15:43;3.1;;;0.9;;
74457;SDS011;62896;51.032;3.712;2023-02-26T20:19:03;3.1;;;0.9;;
74457;SDS011;62896;51.032;3.712;2023-02-26T20:22:23;3.1;;;0.9;;
74457;SDS011;62896;51.032;3.712;2023-02-26T20:25:43;3.1;;;0.9;;
74457;SDS011;62896;51.032;3.712;2023-02-26T20:29:03;3.1;;;0.9;;
74457;SDS011;62896;51.032;3.712;2023-02-26T20:32:23;9.6;;;1.3;;
74457;SDS011;62896;51.032;3.712;2023-02-26T20:35:43;9.6;;;1.3;;
74457;SDS011;62896;51.032;3.712;2023-02-26T20:39:03;9.6;;;1.3;;
74457;SDS011;62896;51.032;3.712;2023-02-26T20:42:23;9.6;;;1.3;;
74457;SDS011;62896;51.032;3.712;2023-02-26T20:45:43;9.6;;;1.3;;
74457;SDS011;62896;51.032;3.712;2023-02-26T20:49:03;9.6;;;1.3;;